sensor_id;sensor_type;location;lat;lon;timestamp;pressure;altitude;pressure_sealevel;temperature;humidity
67738;BME280;54534;43.612;1.572;2023-02-14T00:01:43;100665.69;;;18.44;44.74
67738;BME280;54534;43.612;1.572;2023-02-14T00:04:08;100672.03;;;18.41;44.78
67738;BME280;54534;43.612;1.572;2023-02-14T00:06:35;100677.38;;;18.41;44.82
67738;BME280;54534;43.612;1.572;2023-02-14T00:09:04;100673.94;;;18.39;44.77
67738;BME280;54534;43.612;1.572;2023-02-14T00:11:30;100676.66;;;18.38;44.48
67738;BME280;54534;43.612;1.572;2023-02-14T00:13:56;100675.91;;;18.36;44.71
67738;BME280;54534;43.612;1.572;2023-02-14T00:16:41;100678.63;;;18.34;44.35
67738;BME280;54534;43.612;1.572;2023-02-14T00:19:07;100668.94;;;18.33;44.52
67738;BME280;54534;43.612;1.572;2023-02-14T00:21:35;100677.84;;;18.32;44.64
67738;BME280;54534;43.612;1.572;2023-02-14T00:24:04;100680.63;;;18.30;44.50
67738;BME280;54534;43.612;1.572;2023-02-14T00:26:30;100680.78;;;18.27;44.24
67738;BME280;54534;43.612;1.572;2023-02-14T00:28:55;100675.47;;;18.27;44.47
67738;BME280;54534;43.612;1.572;2023-02-14T00:31:21;100672.03;;;18.25;44.31
67738;BME280;54534;43.612;1.572;2023-02-14T00:33:46;100673.94;;;18.23;44.18
67738;BME280;54534;43.612;1.572;2023-02-14T00:36:19;100671.25;;;18.23;44.19
67738;BME280;54534;43.612;1.572;2023-02-14T00:38:44;100658.97;;;18.20;44.17
67738;BME280;54534;43.612;1.572;2023-02-14T00:41:10;100661.69;;;18.19;44.34
67738;BME280;54534;43.612;1.572;2023-02-14T00:44:01;100654.66;;;18.18;44.30
67738;BME280;54534;43.612;1.572;2023-02-14T00:46:27;100652.06;;;18.16;44.09
67738;BME280;54534;43.612;1.572;2023-02-14T00:48:52;100649.50;;;18.15;44.04
67738;BME280;54534;43.612;1.572;2023-02-14T00:51:18;100648.63;;;18.14;44.11
67738;BME280;54534;43.612;1.572;2023-02-14T00:53:46;100641.69;;;18.11;44.09
67738;BME280;54534;43.612;1.572;2023-02-14T00:56:12;100645.28;;;18.10;44.07
67738;BME280;54534;43.612;1.572;2023-02-14T00:58:38;100635.59;;;18.09;44.13
67738;BME280;54534;43.612;1.572;2023-02-14T01:01:03;100630.25;;;18.09;44.33
67738;BME280;54534;43.612;1.572;2023-02-14T01:03:29;100633.94;;;18.07;43.89
67738;BME280;54534;43.612;1.572;2023-02-14T01:05:55;100636.63;;;18.07;44.05
67738;BME280;54534;43.612;1.572;2023-02-14T01:08:20;100627.00;;;18.04;43.67
67738;BME280;54534;43.612;1.572;2023-02-14T01:10:46;100630.59;;;18.03;44.09
67738;BME280;54534;43.612;1.572;2023-02-14T01:13:12;100629.72;;;18.03;44.25
67738;BME280;54534;43.612;1.572;2023-02-14T01:15:48;100623.56;;;18.02;43.99
67738;BME280;54534;43.612;1.572;2023-02-14T01:18:15;100621.06;;;17.99;43.85
67738;BME280;54534;43.612;1.572;2023-02-14T01:20:41;100621.13;;;17.97;43.79
67738;BME280;54534;43.612;1.572;2023-02-14T01:23:07;100630.91;;;17.97;43.99
67738;BME280;54534;43.612;1.572;2023-02-14T01:25:32;100629.22;;;17.96;43.70
67738;BME280;54534;43.612;1.572;2023-02-14T01:27:58;100625.69;;;17.95;43.86
67738;BME280;54534;43.612;1.572;2023-02-14T01:30:23;100620.47;;;17.94;43.79
67738;BME280;54534;43.612;1.572;2023-02-14T01:32:49;100625.78;;;17.94;43.88
67738;BME280;54534;43.612;1.572;2023-02-14T01:35:15;100622.31;;;17.92;43.73
67738;BME280;54534;43.612;1.572;2023-02-14T01:37:40;100619.75;;;17.90;43.72
67738;BME280;54534;43.612;1.572;2023-02-14T01:40:15;100619.88;;;17.88;43.82
67738;BME280;54534;43.612;1.572;2023-02-14T01:42:42;100609.28;;;17.87;43.33
67738;BME280;54534;43.612;1.572;2023-02-14T01:45:24;100612.91;;;17.86;43.29
67738;BME280;54534;43.612;1.572;2023-02-14T01:47:53;100611.19;;;17.85;43.81
67738;BME280;54534;43.612;1.572;2023-02-14T01:50:25;100615.78;;;17.81;43.68
67738;BME280;54534;43.612;1.572;2023-02-14T01:53:03;100610.56;;;17.79;43.54
67738;BME280;54534;43.612;1.572;2023-02-14T01:55:32;100611.44;;;17.80;43.69
67738;BME280;54534;43.612;1.572;2023-02-14T01:58:16;100612.38;;;17.79;43.56
67738;BME280;54534;43.612;1.572;2023-02-14T02:00:44;100607.13;;;17.77;43.23
67738;BME280;54534;43.612;1.572;2023-02-14T02:03:36;100601.88;;;17.76;43.40
67738;BME280;54534;43.612;1.572;2023-02-14T02:06:16;100606.38;;;17.75;43.32
67738;BME280;54534;43.612;1.572;2023-02-14T02:11:29;100601.22;;;17.72;43.47
67738;BME280;54534;43.612;1.572;2023-02-14T02:13:54;100602.16;;;17.71;43.33
67738;BME280;54534;43.612;1.572;2023-02-14T02:16:36;100595.13;;;17.70;43.18
67738;BME280;54534;43.612;1.572;2023-02-14T02:32:44;100568.94;;;17.62;43.46
67738;BME280;54534;43.612;1.572;2023-02-14T02:35:35;100570.66;;;17.63;43.44
67738;BME280;54534;43.612;1.572;2023-02-14T02:38:28;100565.41;;;17.62;43.19
67738;BME280;54534;43.612;1.572;2023-02-14T02:41:22;100564.72;;;17.58;43.02
67738;BME280;54534;43.612;1.572;2023-02-14T02:49:54;100545.41;;;17.54;42.88
67738;BME280;54534;43.612;1.572;2023-02-14T02:53:20;100555.19;;;17.54;43.09
67738;BME280;54534;43.612;1.572;2023-02-14T02:55:51;100545.59;;;17.51;43.22
67738;BME280;54534;43.612;1.572;2023-02-14T03:01:15;100537.69;;;17.50;43.33
67738;BME280;54534;43.612;1.572;2023-02-14T03:03:44;100543.00;;;17.50;42.96
67738;BME280;54534;43.612;1.572;2023-02-14T03:06:30;100541.31;;;17.49;43.07
67738;BME280;54534;43.612;1.572;2023-02-14T03:08:55;100536.03;;;17.47;42.96
67738;BME280;54534;43.612;1.572;2023-02-14T03:11:21;100549.34;;;17.47;43.00
67738;BME280;54534;43.612;1.572;2023-02-14T03:14:25;100544.88;;;17.48;42.97
67738;BME280;54534;43.612;1.572;2023-02-14T03:17:04;100540.59;;;17.45;43.07
67738;BME280;54534;43.612;1.572;2023-02-14T03:20:02;100525.50;;;17.45;42.69
67738;BME280;54534;43.612;1.572;2023-02-14T03:22:48;100532.72;;;17.43;43.19
67738;BME280;54534;43.612;1.572;2023-02-14T03:38:38;100524.03;;;17.40;42.90
67738;BME280;54534;43.612;1.572;2023-02-14T03:41:11;100517.09;;;17.37;42.60
67738;BME280;54534;43.612;1.572;2023-02-14T03:43:41;100510.91;;;17.37;42.95
67738;BME280;54534;43.612;1.572;2023-02-14T03:46:21;100513.56;;;17.37;42.96
67738;BME280;54534;43.612;1.572;2023-02-14T03:48:50;100518.97;;;17.35;42.89
67738;BME280;54534;43.612;1.572;2023-02-14T03:51:18;100510.13;;;17.34;42.75
67738;BME280;54534;43.612;1.572;2023-02-14T03:53:47;100512.78;;;17.34;43.09
67738;BME280;54534;43.612;1.572;2023-02-14T03:56:55;100506.63;;;17.34;42.66
67738;BME280;54534;43.612;1.572;2023-02-14T03:59:24;100502.31;;;17.31;42.61
67738;BME280;54534;43.612;1.572;2023-02-14T04:02:02;100497.88;;;17.32;42.56
67738;BME280;54534;43.612;1.572;2023-02-14T04:04:33;100502.41;;;17.30;43.14
67738;BME280;54534;43.612;1.572;2023-02-14T04:07:14;100507.72;;;17.30;42.77
67738;BME280;54534;43.612;1.572;2023-02-14T04:09:39;100513.22;;;17.27;42.99
67738;BME280;54534;43.612;1.572;2023-02-14T04:12:05;100508.75;;;17.27;42.66
67738;BME280;54534;43.612;1.572;2023-02-14T04:14:31;100518.53;;;17.27;42.69
67738;BME280;54534;43.612;1.572;2023-02-14T04:16:56;100504.38;;;17.26;42.80
67738;BME280;54534;43.612;1.572;2023-02-14T04:19:51;100515.97;;;17.25;42.91
67738;BME280;54534;43.612;1.572;2023-02-14T04:22:16;100510.72;;;17.23;42.53
67738;BME280;54534;43.612;1.572;2023-02-14T04:24:42;100508.00;;;17.25;42.66
67738;BME280;54534;43.612;1.572;2023-02-14T04:27:08;100512.44;;;17.25;42.62
67738;BME280;54534;43.612;1.572;2023-02-14T04:32:02;100523.22;;;17.21;42.60
67738;BME280;54534;43.612;1.572;2023-02-14T04:34:27;100520.56;;;17.21;42.68
67738;BME280;54534;43.612;1.572;2023-02-14T04:36:52;100516.13;;;17.22;42.54
67738;BME280;54534;43.612;1.572;2023-02-14T04:39:19;100516.19;;;17.20;42.53
67738;BME280;54534;43.612;1.572;2023-02-14T04:41:44;100518.84;;;17.20;42.69
67738;BME280;54534;43.612;1.572;2023-02-14T04:44:09;100527.78;;;17.19;42.81
67738;BME280;54534;43.612;1.572;2023-02-14T04:46:35;100524.25;;;17.19;42.68
67738;BME280;54534;43.612;1.572;2023-02-14T04:49:00;100520.72;;;17.18;42.58
67738;BME280;54534;43.612;1.572;2023-02-14T04:51:25;100517.22;;;17.18;42.47
67738;BME280;54534;43.612;1.572;2023-02-14T04:53:51;100519.00;;;17.17;42.42
67738;BME280;54534;43.612;1.572;2023-02-14T04:56:16;100515.50;;;17.17;42.57
67738;BME280;54534;43.612;1.572;2023-02-14T04:58:42;100514.66;;;17.16;42.83
67738;BME280;54534;43.612;1.572;2023-02-14T05:01:07;100515.50;;;17.17;42.68
67738;BME280;54534;43.612;1.572;2023-02-14T05:03:32;100510.22;;;17.15;42.66
67738;BME280;54534;43.612;1.572;2023-02-14T05:05:58;100513.75;;;17.16;42.63
67738;BME280;54534;43.612;1.572;2023-02-14T05:08:23;100514.78;;;17.13;42.56
67738;BME280;54534;43.612;1.572;2023-02-14T05:10:48;100512.97;;;17.14;42.61
67738;BME280;54534;43.612;1.572;2023-02-14T05:13:14;100511.19;;;17.14;42.77
67738;BME280;54534;43.612;1.572;2023-02-14T05:15:39;100521.88;;;17.12;42.28
67738;BME280;54534;43.612;1.572;2023-02-14T05:18:05;100513.03;;;17.12;42.49
67738;BME280;54534;43.612;1.572;2023-02-14T05:20:30;100511.34;;;17.11;42.50
67738;BME280;54534;43.612;1.572;2023-02-14T05:22:56;100506.91;;;17.11;42.65
67738;BME280;54534;43.612;1.572;2023-02-14T05:25:28;100503.38;;;17.11;42.65
67738;BME280;54534;43.612;1.572;2023-02-14T05:27:53;100505.06;;;17.12;42.49
67738;BME280;54534;43.612;1.572;2023-02-14T05:30:19;100507.72;;;17.12;42.38
67738;BME280;54534;43.612;1.572;2023-02-14T05:32:49;100505.06;;;17.12;42.26
67738;BME280;54534;43.612;1.572;2023-02-14T05:35:14;100503.28;;;17.12;42.68
67738;BME280;54534;43.612;1.572;2023-02-14T05:37:40;100512.03;;;17.15;42.36
67738;BME280;54534;43.612;1.572;2023-02-14T05:40:06;100518.19;;;17.15;42.43
67738;BME280;54534;43.612;1.572;2023-02-14T05:42:32;100512.00;;;17.16;42.55
67738;BME280;54534;43.612;1.572;2023-02-14T05:44:57;100512.75;;;17.18;42.36
67738;BME280;54534;43.612;1.572;2023-02-14T05:47:23;100517.97;;;17.20;42.57
67738;BME280;54534;43.612;1.572;2023-02-14T05:49:48;100520.63;;;17.20;42.58
67738;BME280;54534;43.612;1.572;2023-02-14T05:52:13;100515.16;;;17.23;42.37
67738;BME280;54534;43.612;1.572;2023-02-14T05:54:39;100515.09;;;17.25;42.62
67738;BME280;54534;43.612;1.572;2023-02-14T05:57:04;100515.97;;;17.25;42.63
67738;BME280;54534;43.612;1.572;2023-02-14T05:59:30;100519.38;;;17.27;42.66
67738;BME280;54534;43.612;1.572;2023-02-14T06:01:55;100517.59;;;17.28;42.46
67738;BME280;54534;43.612;1.572;2023-02-14T06:04:20;100519.28;;;17.29;42.84
67738;BME280;54534;43.612;1.572;2023-02-14T06:06:46;100513.06;;;17.30;43.01
67738;BME280;54534;43.612;1.572;2023-02-14T06:09:11;100513.81;;;17.32;42.71
67738;BME280;54534;43.612;1.572;2023-02-14T06:11:37;100517.25;;;17.34;42.69
67738;BME280;54534;43.612;1.572;2023-02-14T06:14:02;100526.09;;;17.34;42.64
67738;BME280;54534;43.612;1.572;2023-02-14T06:16:27;100528.66;;;17.36;42.57
67738;BME280;54534;43.612;1.572;2023-02-14T06:18:53;100532.16;;;17.37;42.44
67738;BME280;54534;43.612;1.572;2023-02-14T06:21:18;100527.72;;;17.37;42.69
67738;BME280;54534;43.612;1.572;2023-02-14T06:23:44;100527.63;;;17.39;42.58
67738;BME280;54534;43.612;1.572;2023-02-14T06:26:09;100522.31;;;17.39;42.84
67738;BME280;54534;43.612;1.572;2023-02-14T06:28:34;100524.03;;;17.40;42.41
67738;BME280;54534;43.612;1.572;2023-02-14T06:31:00;100527.56;;;17.40;43.02
67738;BME280;54534;43.612;1.572;2023-02-14T06:33:25;100524.81;;;17.42;42.68
67738;BME280;54534;43.612;1.572;2023-02-14T06:35:52;100524.81;;;17.42;42.77
67738;BME280;54534;43.612;1.572;2023-02-14T06:38:18;100525.66;;;17.42;42.48
67738;BME280;54534;43.612;1.572;2023-02-14T06:40:43;100530.97;;;17.42;42.69
67738;BME280;54534;43.612;1.572;2023-02-14T06:43:09;100528.31;;;17.42;42.40
67738;BME280;54534;43.612;1.572;2023-02-14T06:45:34;100538.03;;;17.43;42.85
67738;BME280;54534;43.612;1.572;2023-02-14T06:48:00;100540.59;;;17.45;42.52
67738;BME280;54534;43.612;1.572;2023-02-14T06:50:26;100536.13;;;17.45;42.29
67738;BME280;54534;43.612;1.572;2023-02-14T06:52:51;100541.38;;;17.47;42.57
67738;BME280;54534;43.612;1.572;2023-02-14T06:55:17;100536.13;;;17.45;42.28
67738;BME280;54534;43.612;1.572;2023-02-14T06:57:43;100537.00;;;17.46;42.38
67738;BME280;54534;43.612;1.572;2023-02-14T07:00:10;100536.91;;;17.48;42.34
67738;BME280;54534;43.612;1.572;2023-02-14T07:02:36;100532.53;;;17.47;42.23
67738;BME280;54534;43.612;1.572;2023-02-14T07:05:01;100542.22;;;17.48;42.33
67738;BME280;54534;43.612;1.572;2023-02-14T07:07:26;100535.13;;;17.48;42.12
67738;BME280;54534;43.612;1.572;2023-02-14T07:09:52;100534.25;;;17.48;41.98
67738;BME280;54534;43.612;1.572;2023-02-14T07:12:17;100528.06;;;17.47;42.03
67738;BME280;54534;43.612;1.572;2023-02-14T07:14:42;100534.25;;;17.48;42.34
67738;BME280;54534;43.612;1.572;2023-02-14T07:17:08;100531.59;;;17.48;42.13
67738;BME280;54534;43.612;1.572;2023-02-14T07:19:33;100536.91;;;17.48;41.74
67738;BME280;54534;43.612;1.572;2023-02-14T07:21:59;100538.72;;;17.47;41.86
67738;BME280;54534;43.612;1.572;2023-02-14T07:24:25;100537.84;;;17.47;41.90
67738;BME280;54534;43.612;1.572;2023-02-14T07:26:50;100529.88;;;17.47;42.21
67738;BME280;54534;43.612;1.572;2023-02-14T07:29:16;100539.56;;;17.48;42.12
67738;BME280;54534;43.612;1.572;2023-02-14T07:31:41;100532.53;;;17.47;41.92
67738;BME280;54534;43.612;1.572;2023-02-14T07:34:06;100538.63;;;17.49;41.66
67738;BME280;54534;43.612;1.572;2023-02-14T07:36:32;100543.09;;;17.48;41.55
67738;BME280;54534;43.612;1.572;2023-02-14T07:38:58;100544.88;;;17.48;41.82
67738;BME280;54534;43.612;1.572;2023-02-14T07:41:23;100544.88;;;17.48;41.90
67738;BME280;54534;43.612;1.572;2023-02-14T07:43:49;100549.28;;;17.49;41.63
67738;BME280;54534;43.612;1.572;2023-02-14T07:46:14;100544.88;;;17.48;41.49
67738;BME280;54534;43.612;1.572;2023-02-14T07:48:41;100551.06;;;17.48;42.12
67738;BME280;54534;43.612;1.572;2023-02-14T07:51:07;100549.28;;;17.49;41.77
67738;BME280;54534;43.612;1.572;2023-02-14T07:53:33;100549.28;;;17.49;41.75
67738;BME280;54534;43.612;1.572;2023-02-14T07:55:58;100551.94;;;17.49;41.61
67738;BME280;54534;43.612;1.572;2023-02-14T07:58:23;100552.78;;;17.49;41.53
67738;BME280;54534;43.612;1.572;2023-02-14T08:00:49;100552.78;;;17.49;41.65
67738;BME280;54534;43.612;1.572;2023-02-14T08:03:15;100543.97;;;17.49;41.68
67738;BME280;54534;43.612;1.572;2023-02-14T08:05:41;100546.63;;;17.49;41.67
67738;BME280;54534;43.612;1.572;2023-02-14T08:08:06;100543.09;;;17.48;41.61
67738;BME280;54534;43.612;1.572;2023-02-14T08:10:32;100541.31;;;17.49;41.60
67738;BME280;54534;43.612;1.572;2023-02-14T08:12:57;100537.84;;;17.47;41.44
67738;BME280;54534;43.612;1.572;2023-02-14T08:15:33;100541.38;;;17.47;41.54
67738;BME280;54534;43.612;1.572;2023-02-14T08:18:18;100548.41;;;17.48;41.78
67738;BME280;54534;43.612;1.572;2023-02-14T08:20:46;100540.44;;;17.48;41.71
67738;BME280;54534;43.612;1.572;2023-02-14T08:23:13;100536.91;;;17.48;41.79
67738;BME280;54534;43.612;1.572;2023-02-14T08:25:38;100537.78;;;17.48;41.34
67738;BME280;54534;43.612;1.572;2023-02-14T08:28:04;100543.97;;;17.49;41.32
67738;BME280;54534;43.612;1.572;2023-02-14T08:30:30;100543.00;;;17.50;41.76
67738;BME280;54534;43.612;1.572;2023-02-14T08:32:56;100544.78;;;17.49;41.69
67738;BME280;54534;43.612;1.572;2023-02-14T08:35:21;100543.00;;;17.50;41.52
67738;BME280;54534;43.612;1.572;2023-02-14T08:37:47;100535.13;;;17.48;41.30
67738;BME280;54534;43.612;1.572;2023-02-14T08:40:12;100543.00;;;17.50;41.26
67738;BME280;54534;43.612;1.572;2023-02-14T08:42:38;100542.13;;;17.49;41.45
67738;BME280;54534;43.612;1.572;2023-02-14T08:45:03;100535.88;;;17.50;41.29
67738;BME280;54534;43.612;1.572;2023-02-14T08:47:31;100537.69;;;17.50;41.37
67738;BME280;54534;43.612;1.572;2023-02-14T08:50:01;100531.50;;;17.49;41.46
67738;BME280;54534;43.612;1.572;2023-02-14T08:52:27;100538.53;;;17.50;41.12
67738;BME280;54534;43.612;1.572;2023-02-14T08:54:53;100527.03;;;17.50;41.32
67738;BME280;54534;43.612;1.572;2023-02-14T08:57:18;100535.03;;;17.50;41.23
67738;BME280;54534;43.612;1.572;2023-02-14T08:59:44;100532.34;;;17.50;41.17
67738;BME280;54534;43.612;1.572;2023-02-14T09:02:12;100533.22;;;17.50;41.15
67738;BME280;54534;43.612;1.572;2023-02-14T09:04:38;100536.75;;;17.51;41.21
67738;BME280;54534;43.612;1.572;2023-02-14T09:07:04;100526.13;;;17.51;41.38
67738;BME280;54534;43.612;1.572;2023-02-14T09:09:30;100523.47;;;17.51;41.16
67738;BME280;54534;43.612;1.572;2023-02-14T09:11:56;100528.78;;;17.51;41.00
67738;BME280;54534;43.612;1.572;2023-02-14T09:14:22;100529.63;;;17.51;40.95
67738;BME280;54534;43.612;1.572;2023-02-14T09:16:49;100532.28;;;17.51;40.86
67738;BME280;54534;43.612;1.572;2023-02-14T09:19:14;100519.94;;;17.50;41.09
67738;BME280;54534;43.612;1.572;2023-02-14T09:21:40;100518.13;;;17.51;41.07
67738;BME280;54534;43.612;1.572;2023-02-14T09:24:05;100512.72;;;17.52;41.01
67738;BME280;54534;43.612;1.572;2023-02-14T09:26:31;100522.50;;;17.52;40.99
67738;BME280;54534;43.612;1.572;2023-02-14T09:28:57;100520.78;;;17.51;41.08
67738;BME280;54534;43.612;1.572;2023-02-14T09:31:23;100521.66;;;17.51;41.07
67738;BME280;54534;43.612;1.572;2023-02-14T09:33:50;100522.50;;;17.52;41.19
67738;BME280;54534;43.612;1.572;2023-02-14T09:36:33;100522.50;;;17.52;40.85
67738;BME280;54534;43.612;1.572;2023-02-14T09:39:17;100515.47;;;17.51;40.91
67738;BME280;54534;43.612;1.572;2023-02-14T09:41:55;100518.13;;;17.51;40.90
67738;BME280;54534;43.612;1.572;2023-02-14T09:46:58;100526.13;;;17.51;40.85
67738;BME280;54534;43.612;1.572;2023-02-14T09:49:32;100524.31;;;17.51;40.83
67738;BME280;54534;43.612;1.572;2023-02-14T09:52:01;100524.31;;;17.51;40.91
67738;BME280;54534;43.612;1.572;2023-02-14T09:54:27;100512.81;;;17.51;41.25
67738;BME280;54534;43.612;1.572;2023-02-14T09:56:58;100515.47;;;17.51;40.97
67738;BME280;54534;43.612;1.572;2023-02-14T09:59:43;100515.47;;;17.51;40.99
67738;BME280;54534;43.612;1.572;2023-02-14T10:04:57;100511.03;;;17.51;41.22
67738;BME280;54534;43.612;1.572;2023-02-14T10:13:04;100519.84;;;17.52;41.17
67738;BME280;54534;43.612;1.572;2023-02-14T10:15:38;100512.81;;;17.51;41.23
67738;BME280;54534;43.612;1.572;2023-02-14T10:18:24;100504.75;;;17.52;40.78
67738;BME280;54534;43.612;1.572;2023-02-14T10:20:54;100509.19;;;17.52;41.24
67738;BME280;54534;43.612;1.572;2023-02-14T10:26:47;100504.75;;;17.52;41.34
67738;BME280;54534;43.612;1.572;2023-02-14T10:28:49;100503.88;;;17.52;41.14
67738;BME280;54534;43.612;1.572;2023-02-14T10:34:16;100494.09;;;17.52;40.84
67738;BME280;54534;43.612;1.572;2023-02-14T10:37:12;100499.41;;;17.52;40.82
67738;BME280;54534;43.612;1.572;2023-02-14T10:39:46;100499.53;;;17.51;41.12
67738;BME280;54534;43.612;1.572;2023-02-14T10:42:53;100503.03;;;17.51;40.72
67738;BME280;54534;43.612;1.572;2023-02-14T10:45:46;100501.22;;;17.52;40.84
67738;BME280;54534;43.612;1.572;2023-02-14T10:56:45;100501.22;;;17.52;40.74
67738;BME280;54534;43.612;1.572;2023-02-14T10:59:34;100494.09;;;17.52;40.76
67738;BME280;54534;43.612;1.572;2023-02-14T11:02:04;100490.50;;;17.53;41.04
67738;BME280;54534;43.612;1.572;2023-02-14T11:04:30;100484.34;;;17.53;41.19
67738;BME280;54534;43.612;1.572;2023-02-14T11:06:56;100478.91;;;17.54;40.98
67738;BME280;54534;43.612;1.572;2023-02-14T11:09:21;100476.25;;;17.54;41.06
67738;BME280;54534;43.612;1.572;2023-02-14T11:11:55;100473.59;;;17.54;40.93
67738;BME280;54534;43.612;1.572;2023-02-14T11:16:50;100474.56;;;17.53;41.14
67738;BME280;54534;43.612;1.572;2023-02-14T11:19:30;100465.63;;;17.54;40.88
67738;BME280;54534;43.612;1.572;2023-02-14T11:21:59;100456.81;;;17.54;41.18
67738;BME280;54534;43.612;1.572;2023-02-14T11:24:34;100456.81;;;17.54;40.73
67738;BME280;54534;43.612;1.572;2023-02-14T11:27:13;100448.72;;;17.55;41.05
67738;BME280;54534;43.612;1.572;2023-02-14T11:32:20;100439.03;;;17.54;40.68
67738;BME280;54534;43.612;1.572;2023-02-14T11:37:30;100426.59;;;17.55;40.92
67738;BME280;54534;43.612;1.572;2023-02-14T11:39:59;100417.69;;;17.56;40.79
67738;BME280;54534;43.612;1.572;2023-02-14T11:42:41;100421.22;;;17.56;40.73
67738;BME280;54534;43.612;1.572;2023-02-14T11:45:35;100412.38;;;17.56;40.62
67738;BME280;54534;43.612;1.572;2023-02-14T11:48:27;100400.75;;;17.57;40.77
67738;BME280;54534;43.612;1.572;2023-02-14T11:51:12;100400.75;;;17.57;41.02
67738;BME280;54534;43.612;1.572;2023-02-14T11:53:46;100396.41;;;17.56;40.99
67738;BME280;54534;43.612;1.572;2023-02-14T11:56:17;100390.13;;;17.57;40.73
67738;BME280;54534;43.612;1.572;2023-02-14T11:59:14;100382.25;;;17.55;40.63
67738;BME280;54534;43.612;1.572;2023-02-14T12:01:45;100388.44;;;17.56;40.89
67738;BME280;54534;43.612;1.572;2023-02-14T12:04:14;100382.25;;;17.55;40.66
67738;BME280;54534;43.612;1.572;2023-02-14T12:06:42;100384.81;;;17.57;40.91
67738;BME280;54534;43.612;1.572;2023-02-14T12:09:24;100369.81;;;17.56;40.91
67738;BME280;54534;43.612;1.572;2023-02-14T12:14:20;100360.88;;;17.57;40.73
67738;BME280;54534;43.612;1.572;2023-02-14T12:16:54;100362.59;;;17.58;40.97
67738;BME280;54534;43.612;1.572;2023-02-14T12:19:34;100354.63;;;17.58;40.95
67738;BME280;54534;43.612;1.572;2023-02-14T12:22:04;100348.44;;;17.58;40.82
67738;BME280;54534;43.612;1.572;2023-02-14T12:24:54;100356.34;;;17.59;40.71
67738;BME280;54534;43.612;1.572;2023-02-14T12:27:27;100351.88;;;17.60;40.72
67738;BME280;54534;43.612;1.572;2023-02-14T12:30:14;100340.41;;;17.59;41.10
67738;BME280;54534;43.612;1.572;2023-02-14T12:32:51;100330.59;;;17.60;41.09
67738;BME280;54534;43.612;1.572;2023-02-14T12:35:26;100329.75;;;17.59;40.67
67738;BME280;54534;43.612;1.572;2023-02-14T12:40:28;100334.09;;;17.60;41.06
67738;BME280;54534;43.612;1.572;2023-02-14T13:04:56;100310.19;;;17.60;41.10
67738;BME280;54534;43.612;1.572;2023-02-14T13:10:29;100302.13;;;17.62;40.84
67738;BME280;54534;43.612;1.572;2023-02-14T13:13:27;100304.78;;;17.62;40.86
67738;BME280;54534;43.612;1.572;2023-02-14T13:21:25;100291.50;;;17.62;41.03
67738;BME280;54534;43.612;1.572;2023-02-14T13:24:28;100285.19;;;17.63;41.18
67738;BME280;54534;43.612;1.572;2023-02-14T13:26:59;100287.03;;;17.62;41.15
67738;BME280;54534;43.612;1.572;2023-02-14T13:29:41;100271.91;;;17.63;41.10
67738;BME280;54534;43.612;1.572;2023-02-14T13:32:12;100283.41;;;17.63;41.18
67738;BME280;54534;43.612;1.572;2023-02-14T13:34:46;100274.56;;;17.63;40.99
67738;BME280;54534;43.612;1.572;2023-02-14T13:37:16;100284.28;;;17.64;41.00
67738;BME280;54534;43.612;1.572;2023-02-14T13:40:04;100280.75;;;17.63;41.18
67738;BME280;54534;43.612;1.572;2023-02-14T13:45:52;100285.13;;;17.64;41.33
67738;BME280;54534;43.612;1.572;2023-02-14T13:48:25;100281.59;;;17.64;41.42
67738;BME280;54534;43.612;1.572;2023-02-14T13:53:40;100272.69;;;17.65;41.04
67738;BME280;54534;43.612;1.572;2023-02-14T13:58:48;100264.72;;;17.65;41.45
67738;BME280;54534;43.612;1.572;2023-02-14T14:04:05;100263.84;;;17.64;41.41
67738;BME280;54534;43.612;1.572;2023-02-14T14:07:24;100261.09;;;17.66;41.48
67738;BME280;54534;43.612;1.572;2023-02-14T14:17:30;100239.81;;;17.66;41.50
67738;BME280;54534;43.612;1.572;2023-02-14T14:19:56;100232.69;;;17.66;41.27
67738;BME280;54534;43.612;1.572;2023-02-14T14:22:23;100230.78;;;17.68;41.48
67738;BME280;54534;43.612;1.572;2023-02-14T14:24:56;100232.59;;;17.68;41.46
67738;BME280;54534;43.612;1.572;2023-02-14T14:27:29;100234.41;;;17.67;41.32
67738;BME280;54534;43.612;1.572;2023-02-14T14:30:02;100241.44;;;17.68;41.53
67738;BME280;54534;43.612;1.572;2023-02-14T14:32:36;100233.44;;;17.68;41.81
67738;BME280;54534;43.612;1.572;2023-02-14T14:35:16;100246.75;;;17.68;41.85
67738;BME280;54534;43.612;1.572;2023-02-14T14:37:51;100239.63;;;17.69;41.33
67738;BME280;54534;43.612;1.572;2023-02-14T14:40:36;100236.13;;;17.68;41.35
67738;BME280;54534;43.612;1.572;2023-02-14T14:43:10;100222.81;;;17.68;41.35
67738;BME280;54534;43.612;1.572;2023-02-14T14:45:37;100232.53;;;17.70;41.58
67738;BME280;54534;43.612;1.572;2023-02-14T14:48:10;100227.19;;;17.70;41.63
67738;BME280;54534;43.612;1.572;2023-02-14T14:50:42;100220.91;;;17.71;41.41
67738;BME280;54534;43.612;1.572;2023-02-14T14:53:20;100227.09;;;17.71;41.52
67738;BME280;54534;43.612;1.572;2023-02-14T14:55:46;100219.97;;;17.72;41.77
67738;BME280;54534;43.612;1.572;2023-02-14T15:00:56;100228.88;;;17.71;41.28
67738;BME280;54534;43.612;1.572;2023-02-14T15:03:24;100217.31;;;17.72;41.30
67738;BME280;54534;43.612;1.572;2023-02-14T15:05:50;100215.59;;;17.71;41.62
67738;BME280;54534;43.612;1.572;2023-02-14T15:08:18;100212.00;;;17.72;41.51
67738;BME280;54534;43.612;1.572;2023-02-14T15:10:57;100206.69;;;17.72;41.66
67738;BME280;54534;43.612;1.572;2023-02-14T15:13:40;100209.34;;;17.72;41.29
67738;BME280;54534;43.612;1.572;2023-02-14T15:16:46;100213.72;;;17.73;41.48
67738;BME280;54534;43.612;1.572;2023-02-14T15:19:32;100204.97;;;17.71;41.77
67738;BME280;54534;43.612;1.572;2023-02-14T15:22:03;100209.44;;;17.70;41.41